GVAC/SID METAR and TAF weather

Enter ICAO airport designator
Station Type Date Time Source
GVAC METAR 2021/05/11 17:00 UTC NOAA

GVAC 111700Z 03016KT 9999 FEW014 25/18 Q1014 NOSIG


Station Type Date Time Source
GVAC Decoded METAR 2021/05/11 17:00 UTC NOAA

Sal, Cape Verde (GVAC) 16-44N 022-57W 55M
May 11, 2021 - 01:00 PM EDT / 2021.05.11 1700 UTC
Wind: from the NNE (030 degrees) at 18 MPH (16 KT):0
Visibility: greater than 7 mile(s):0
Sky conditions: mostly clear
Temperature: 77 F (25 C)
Dew Point: 64 F (18 C)
Relative Humidity: 65%
Pressure (altimeter): 29.94 in. Hg (1014 hPa)
ob: GVAC 111700Z 03016KT 9999 FEW014 25/18 Q1014 NOSIG
cycle: 17

Station Type Date Time Source
GVAC TAF 2021/05/11 18:59 UTC NOAA

TAF GVAC 111700Z 1118/1224 03017KT 9999 FEW014 PROB30 1120/1206 BKN014

Example: see airport list